createdAt,value
2022-09-20T00:00:11.119Z,9.05
2022-09-20T00:03:13.669Z,8.96
2022-09-20T00:05:48.381Z,9.15
2022-09-20T00:08:20.269Z,8.93
2022-09-20T00:10:55.539Z,9.10
2022-09-20T00:13:27.211Z,9.14
2022-09-20T00:15:59.345Z,9.21
2022-09-20T00:18:30.877Z,9.17
2022-09-20T00:21:02.839Z,9.19
2022-09-20T00:23:34.569Z,9.04
2022-09-20T00:26:09.141Z,9.10
2022-09-20T00:28:40.730Z,9.08
2022-09-20T00:31:13.990Z,8.90
2022-09-20T00:33:57.971Z,8.99
2022-09-20T00:36:30.279Z,9.07
2022-09-20T00:39:04.341Z,9.09
2022-09-20T00:41:39.230Z,9.01
2022-09-20T00:44:41.041Z,9.04
2022-09-20T00:47:17.610Z,9.05
2022-09-20T00:49:49.820Z,8.72
2022-09-20T00:52:22.182Z,8.75
2022-09-20T00:54:54.309Z,8.76
2022-09-20T00:57:56.339Z,8.87
2022-09-20T01:00:30.092Z,8.93
2022-09-20T01:03:10.610Z,8.78
2022-09-20T01:05:44.492Z,8.90
2022-09-20T01:08:17.660Z,8.92
2022-09-20T01:10:50.219Z,8.95
2022-09-20T01:13:25.298Z,8.87
2022-09-20T01:15:59.282Z,8.84
2022-09-20T01:18:33.031Z,8.80
2022-09-20T01:21:07.160Z,8.87
2022-09-20T01:23:55.030Z,8.96
2022-09-20T01:26:53.679Z,9.00
2022-09-20T01:29:47.589Z,9.02
2022-09-20T01:32:24.176Z,9.02
2022-09-20T01:35:01.102Z,8.95
2022-09-20T01:37:39.263Z,9.01
2022-09-20T01:40:20.301Z,9.01
2022-09-20T01:43:06.013Z,9.00
2022-09-20T01:45:47.932Z,8.91
2022-09-20T01:48:31.121Z,8.96
2022-09-20T01:51:33.721Z,8.43
2022-09-20T01:54:36.719Z,8.56
2022-09-20T01:57:38.078Z,8.41
2022-09-20T02:00:15.359Z,8.60
2022-09-20T02:03:24.481Z,8.68
2022-09-20T02:06:30.571Z,8.74
2022-09-20T02:09:29.149Z,8.23
2022-09-20T02:12:21.069Z,8.48
2022-09-20T02:15:06.651Z,8.45
2022-09-20T02:17:48.440Z,8.78
2022-09-20T02:20:35.690Z,8.91
2022-09-20T02:23:24.410Z,8.76
2022-09-20T02:26:13.881Z,8.87
2022-09-20T02:28:56.850Z,8.86
2022-09-20T02:31:53.931Z,8.62
2022-09-20T02:34:54.410Z,8.83
2022-09-20T02:37:53.439Z,8.85
2022-09-20T02:40:38.537Z,8.71
2022-09-20T02:43:20.992Z,8.51
2022-09-20T02:46:04.556Z,8.78
2022-09-20T02:48:45.690Z,8.78
2022-09-20T02:51:27.739Z,9.15
2022-09-20T02:54:09.840Z,8.95
2022-09-20T02:56:51.260Z,9.17
2022-09-20T02:59:34.711Z,9.35
2022-09-20T03:02:19.237Z,9.03
2022-09-20T03:05:05.970Z,8.85
2022-09-20T03:07:49.453Z,9.03
2022-09-20T03:10:32.324Z,9.18
2022-09-20T03:13:20.843Z,9.08
2022-09-20T03:16:06.247Z,9.13
2022-09-20T03:18:47.021Z,9.12
2022-09-20T03:21:35.259Z,9.08
2022-09-20T03:24:21.350Z,9.21
2022-09-20T03:27:05.909Z,9.00
2022-09-20T03:29:59.739Z,8.84
2022-09-20T03:32:47.919Z,9.12
2022-09-20T03:35:38.140Z,9.03
2022-09-20T03:38:48.284Z,9.02
2022-09-20T03:41:37.392Z,9.18
2022-09-20T03:44:29.370Z,9.22
2022-09-20T03:47:13.480Z,9.25
2022-09-20T03:50:16.536Z,9.22
2022-09-20T03:53:04.349Z,9.33
2022-09-20T03:55:54.889Z,9.12
2022-09-20T03:58:42.581Z,9.23
2022-09-20T04:01:37.164Z,9.15
2022-09-20T04:04:22.960Z,8.92
2022-09-20T04:07:27.082Z,8.87
2022-09-20T04:10:30.830Z,8.87
2022-09-20T04:13:18.539Z,9.13
2022-09-20T04:16:13.470Z,8.78
2022-09-20T04:18:57.220Z,8.96
2022-09-20T04:21:38.080Z,8.92
2022-09-20T04:24:21.676Z,9.08
2022-09-20T04:26:58.949Z,8.86
2022-09-20T04:29:39.271Z,8.57
2022-09-20T04:32:19.599Z,8.84
2022-09-20T04:35:13.450Z,9.08
2022-09-20T04:37:48.070Z,9.15
2022-09-20T04:40:36.905Z,8.89
2022-09-20T04:43:52.111Z,8.96
2022-09-20T04:47:00.342Z,8.79
2022-09-20T04:50:21.860Z,8.96
2022-09-20T04:53:19.478Z,9.37
2022-09-20T04:55:59.180Z,9.15
2022-09-20T04:59:08.850Z,9.19
2022-09-20T05:02:22.619Z,9.56
2022-09-20T05:05:32.961Z,9.69
2022-09-20T05:08:48.900Z,9.58
2022-09-20T05:11:47.500Z,9.19
2022-09-20T05:14:40.060Z,9.64
2022-09-20T05:17:39.399Z,9.34
2022-09-20T05:20:34.539Z,9.54
2022-09-20T05:23:34.060Z,9.67
2022-09-20T05:26:11.859Z,9.81
2022-09-20T05:28:57.080Z,9.94
2022-09-20T05:31:40.691Z,9.69
2022-09-20T05:34:26.156Z,9.68
2022-09-20T05:37:09.881Z,9.89
2022-09-20T05:39:53.120Z,10.16
2022-09-20T05:42:37.724Z,10.33
2022-09-20T05:45:26.129Z,10.49
2022-09-20T05:48:03.200Z,10.25
2022-09-20T05:50:48.293Z,10.01
2022-09-20T05:53:52.282Z,9.92
2022-09-20T05:56:47.208Z,9.81
2022-09-20T05:59:41.519Z,9.97
2022-09-20T06:02:31.301Z,10.19
2022-09-20T06:05:07.821Z,10.10
2022-09-20T06:08:02.639Z,10.08
2022-09-20T06:10:54.161Z,10.03
2022-09-20T06:13:42.647Z,10.27
2022-09-20T06:16:20.855Z,10.54
2022-09-20T06:19:04.959Z,10.77
2022-09-20T06:21:46.640Z,10.33
2022-09-20T06:24:28.480Z,10.38
2022-09-20T06:27:03.180Z,10.57
2022-09-20T06:29:41.841Z,10.50
2022-09-20T06:32:13.859Z,10.20
2022-09-20T06:34:46.341Z,10.39
2022-09-20T06:37:46.801Z,10.77
2022-09-20T06:40:53.463Z,10.94
2022-09-20T06:43:25.281Z,10.73
2022-09-20T06:46:00.253Z,10.64
2022-09-20T06:48:35.583Z,11.06
2022-09-20T06:51:08.460Z,10.56
2022-09-20T06:53:44.262Z,10.77
2022-09-20T06:56:21.942Z,10.36
2022-09-20T06:58:54.875Z,10.61
2022-09-20T07:01:30.817Z,11.04
2022-09-20T07:04:03.224Z,10.96
2022-09-20T07:06:36.339Z,10.28
2022-09-20T07:09:09.100Z,10.24
2022-09-20T07:11:41.861Z,10.58
2022-09-20T07:14:15.899Z,10.40
2022-09-20T07:16:51.462Z,10.76
2022-09-20T07:19:24.274Z,10.32
2022-09-20T07:21:57.520Z,10.08
2022-09-20T07:24:31.501Z,9.94
2022-09-20T07:27:07.831Z,10.12
2022-09-20T07:29:41.313Z,10.43
2022-09-20T07:32:18.507Z,10.33
2022-09-20T07:34:51.074Z,10.71
2022-09-20T07:37:24.067Z,10.85
2022-09-20T07:39:56.955Z,11.02
2022-09-20T07:42:30.094Z,11.24
2022-09-20T07:45:03.100Z,11.25
2022-09-20T07:47:41.771Z,11.40
2022-09-20T07:50:13.356Z,11.20
2022-09-20T07:52:45.697Z,11.26
2022-09-20T07:55:18.285Z,11.81
2022-09-20T07:57:49.822Z,12.02
2022-09-20T08:00:21.601Z,12.16
2022-09-20T08:03:06.132Z,12.21
2022-09-20T08:05:37.163Z,11.84
2022-09-20T08:08:09.516Z,12.26
2022-09-20T08:10:41.711Z,12.73
2022-09-20T08:16:09.430Z,12.85
2022-09-20T08:18:49.629Z,12.96
2022-09-20T08:21:23.139Z,13.23
2022-09-20T08:23:55.537Z,14.10
2022-09-20T08:26:27.753Z,14.48
2022-09-20T08:29:02.126Z,14.83
2022-09-20T08:34:52.396Z,16.95
2022-09-20T08:37:25.437Z,17.11
2022-09-20T08:39:58.882Z,17.17
2022-09-20T08:42:39.041Z,18.04
2022-09-20T08:45:33.865Z,17.69
2022-09-20T08:48:14.416Z,18.09
2022-09-20T08:50:49.945Z,17.50
2022-09-20T08:53:22.984Z,18.20
2022-09-20T08:55:58.344Z,17.35
2022-09-20T08:58:31.309Z,18.29
2022-09-20T09:01:03.891Z,18.78
2022-09-20T09:03:37.470Z,17.54
2022-09-20T09:06:24.654Z,17.54
2022-09-20T09:09:02.131Z,17.23
2022-09-20T09:11:34.571Z,17.21
2022-09-20T09:14:31.712Z,18.29
2022-09-20T09:17:04.340Z,18.12
2022-09-20T09:19:47.781Z,18.94
2022-09-20T09:22:37.293Z,17.94
2022-09-20T09:25:13.535Z,19.01
2022-09-20T09:27:55.253Z,18.32
2022-09-20T09:30:31.616Z,18.80
2022-09-20T09:33:28.811Z,19.55
2022-09-20T09:36:08.296Z,19.24
2022-09-20T09:38:46.293Z,18.81
2022-09-20T09:41:30.195Z,19.74
2022-09-20T09:44:05.935Z,17.50
2022-09-20T09:46:40.774Z,17.85
2022-09-20T09:49:18.812Z,17.96
2022-09-20T09:52:07.133Z,17.67
2022-09-20T09:54:45.093Z,17.80
2022-09-20T09:57:29.550Z,16.58
2022-09-20T10:00:20.376Z,16.29
2022-09-20T10:03:26.811Z,15.68
2022-09-20T10:06:11.293Z,16.19
2022-09-20T10:08:55.094Z,16.68
2022-09-20T10:11:39.773Z,17.12
2022-09-20T10:14:25.898Z,17.42
2022-09-20T10:17:16.093Z,16.71
2022-09-20T10:20:13.563Z,16.07
2022-09-20T10:23:30.137Z,15.53
2022-09-20T10:25:56.660Z,15.38
2022-09-20T10:28:48.931Z,15.76
2022-09-20T10:31:39.612Z,17.84
2022-09-20T10:34:35.855Z,16.95
2022-09-20T10:37:21.060Z,17.62
2022-09-20T10:40:08.551Z,17.50
2022-09-20T10:43:00.859Z,16.89
2022-09-20T10:48:52.170Z,15.98
2022-09-20T10:51:39.771Z,16.19
2022-09-20T10:54:26.936Z,15.20
2022-09-20T10:57:14.972Z,14.61
2022-09-20T11:00:00.094Z,15.04
2022-09-20T11:03:04.095Z,15.40
2022-09-20T11:05:46.858Z,15.03
2022-09-20T11:08:23.338Z,14.99
2022-09-20T11:10:58.668Z,15.30
2022-09-20T11:13:38.929Z,14.64
2022-09-20T11:17:00.685Z,13.72
2022-09-20T11:19:51.051Z,13.83
2022-09-20T11:22:32.493Z,13.33
2022-09-20T11:25:20.869Z,12.55
2022-09-20T11:28:05.622Z,11.95
2022-09-20T11:30:47.241Z,11.29
2022-09-20T11:33:26.073Z,10.81
2022-09-20T11:36:06.500Z,10.92
2022-09-20T11:38:53.028Z,11.00
2022-09-20T11:41:30.473Z,10.80
2022-09-20T11:44:08.152Z,10.95
2022-09-20T11:46:48.720Z,11.20
2022-09-20T11:49:25.323Z,11.06
2022-09-20T11:52:29.313Z,11.11
2022-09-20T11:55:21.709Z,11.56
2022-09-20T11:58:08.669Z,11.86
2022-09-20T12:00:44.764Z,12.08
2022-09-20T12:03:32.057Z,12.47
2022-09-20T12:06:06.387Z,12.35
2022-09-20T12:08:44.428Z,12.43
2022-09-20T12:11:32.606Z,12.73
2022-09-20T12:14:08.193Z,12.57
2022-09-20T12:16:45.265Z,12.67
2022-09-20T12:19:39.176Z,12.87
2022-09-20T12:22:31.816Z,13.15
2022-09-20T12:25:33.455Z,13.27
2022-09-20T12:28:18.656Z,13.38
2022-09-20T12:30:50.856Z,13.04
2022-09-20T12:33:25.657Z,12.94
2022-09-20T12:36:17.938Z,13.14
2022-09-20T12:38:55.563Z,13.43
2022-09-20T12:41:30.458Z,13.44
2022-09-20T12:44:31.616Z,13.67
2022-09-20T12:47:06.748Z,13.85
2022-09-20T12:49:59.818Z,13.95
2022-09-20T12:52:58.860Z,13.96
2022-09-20T12:56:00.621Z,13.46
2022-09-20T12:58:45.568Z,12.75
2022-09-20T13:01:40.321Z,12.37
2022-09-20T13:04:43.754Z,12.01
2022-09-20T13:07:49.915Z,12.13
2022-09-20T13:10:30.562Z,11.96
2022-09-20T13:13:15.718Z,11.89
2022-09-20T13:15:55.154Z,11.73
2022-09-20T13:18:32.556Z,11.64
2022-09-20T13:21:08.641Z,11.29
2022-09-20T13:23:51.840Z,11.67
2022-09-20T13:26:30.606Z,11.89
2022-09-20T13:29:02.879Z,11.36
2022-09-20T13:31:39.740Z,11.62
2022-09-20T13:34:24.924Z,11.87
2022-09-20T13:37:01.650Z,12.50
2022-09-20T13:39:38.728Z,12.70
2022-09-20T13:42:20.367Z,12.62
2022-09-20T13:44:53.688Z,12.58
2022-09-20T13:47:31.571Z,13.29
2022-09-20T13:50:24.493Z,12.92
2022-09-20T13:52:59.447Z,12.45
2022-09-20T13:55:34.726Z,12.99
2022-09-20T13:58:10.149Z,13.21
2022-09-20T14:00:50.424Z,13.20
2022-09-20T14:03:24.308Z,13.26
2022-09-20T14:06:03.667Z,12.99
2022-09-20T14:08:40.948Z,13.30
2022-09-20T14:11:19.547Z,13.23
2022-09-20T14:13:54.477Z,13.33
2022-09-20T14:16:32.033Z,13.51
2022-09-20T14:19:08.438Z,13.29
2022-09-20T14:21:45.253Z,13.14
2022-09-20T14:24:35.879Z,13.40
2022-09-20T14:27:19.983Z,13.35
2022-09-20T14:29:53.822Z,13.80
2022-09-20T14:32:43.305Z,13.38
2022-09-20T14:35:23.437Z,14.00
2022-09-20T14:38:03.155Z,13.98
2022-09-20T14:40:45.116Z,13.97
2022-09-20T14:43:33.072Z,14.01
2022-09-20T14:46:08.035Z,13.76
2022-09-20T14:48:43.198Z,13.59
2022-09-20T14:51:25.760Z,13.94
2022-09-20T14:54:26.672Z,13.81
2022-09-20T14:57:02.117Z,13.53
2022-09-20T14:59:50.056Z,13.89
2022-09-20T15:02:23.125Z,13.67
2022-09-20T15:05:02.783Z,13.88
2022-09-20T15:07:35.674Z,13.95
2022-09-20T15:10:16.409Z,13.71
2022-09-20T15:12:49.014Z,13.60
2022-09-20T15:15:22.152Z,13.49
2022-09-20T15:18:08.675Z,13.80
2022-09-20T15:21:01.191Z,13.50
2022-09-20T15:23:33.634Z,13.16
2022-09-20T15:26:10.112Z,13.32
2022-09-20T15:28:45.836Z,13.19
2022-09-20T15:31:21.651Z,12.98
2022-09-20T15:33:54.235Z,13.38
2022-09-20T15:36:32.272Z,13.27
2022-09-20T15:39:05.442Z,13.16
2022-09-20T15:41:42.070Z,12.92
2022-09-20T15:44:14.871Z,12.30
2022-09-20T15:46:48.794Z,12.32
2022-09-20T15:49:22.159Z,11.79
2022-09-20T15:51:56.750Z,12.08
2022-09-20T15:54:29.439Z,11.72
2022-09-20T15:57:05.392Z,11.89
2022-09-20T15:59:38.148Z,11.74
2022-09-20T16:02:14.255Z,11.41
2022-09-20T16:04:47.031Z,11.79
2022-09-20T16:07:26.069Z,11.74
2022-09-20T16:10:01.194Z,11.72
2022-09-20T16:12:36.829Z,11.83
2022-09-20T16:15:10.958Z,11.84
2022-09-20T16:17:56.115Z,11.84
2022-09-20T16:20:28.678Z,12.02
2022-09-20T16:23:02.557Z,12.01
2022-09-20T16:25:35.269Z,12.00
2022-09-20T16:28:12.306Z,12.04
2022-09-20T16:31:08.049Z,12.11
2022-09-20T16:37:04.066Z,12.05
2022-09-20T16:39:58.449Z,11.88
2022-09-20T16:42:52.443Z,11.96
2022-09-20T16:45:29.261Z,12.01
2022-09-20T16:48:08.565Z,11.98
2022-09-20T16:50:47.936Z,11.96
2022-09-20T16:53:20.229Z,11.94
2022-09-20T16:55:56.310Z,11.96
2022-09-20T16:58:34.310Z,11.95
2022-09-20T17:01:11.938Z,11.92
2022-09-20T17:03:44.987Z,11.89
2022-09-20T17:06:26.858Z,11.86
2022-09-20T17:09:02.026Z,11.87
2022-09-20T17:11:37.316Z,12.05
2022-09-20T17:14:10.313Z,12.07
2022-09-20T17:16:56.810Z,11.95
2022-09-20T17:19:31.753Z,11.91
2022-09-20T17:22:04.314Z,11.85
2022-09-20T17:24:36.764Z,11.86
2022-09-20T17:27:09.834Z,11.78
2022-09-20T17:29:41.955Z,11.77
2022-09-20T17:32:14.493Z,11.69
2022-09-20T17:35:16.313Z,11.78
2022-09-20T17:37:50.794Z,11.73
2022-09-20T17:40:22.758Z,11.83
2022-09-20T17:42:55.233Z,11.70
2022-09-20T17:45:27.463Z,11.69
2022-09-20T17:48:00.287Z,11.54
2022-09-20T17:50:35.304Z,11.58
2022-09-20T17:53:11.431Z,11.53
2022-09-20T17:55:47.278Z,11.55
2022-09-20T17:58:19.916Z,11.52
2022-09-20T18:00:56.841Z,11.43
2022-09-20T18:03:29.960Z,11.43
2022-09-20T18:06:13.452Z,11.47
2022-09-20T18:08:50.195Z,11.42
2022-09-20T18:11:25.759Z,11.38
2022-09-20T18:13:58.437Z,11.31
2022-09-20T18:16:37.632Z,11.20
2022-09-20T18:19:14.581Z,11.18
2022-09-20T18:21:52.049Z,11.15
2022-09-20T18:24:26.270Z,11.12
2022-09-20T18:26:58.568Z,11.04
2022-09-20T18:29:36.997Z,11.02
2022-09-20T18:32:19.087Z,11.00
2022-09-20T18:34:53.295Z,11.00
2022-09-20T18:37:27.231Z,10.91
2022-09-20T18:39:58.666Z,10.89
2022-09-20T18:42:31.274Z,10.82
2022-09-20T18:45:02.966Z,10.79
2022-09-20T18:47:34.197Z,10.77
2022-09-20T18:50:06.951Z,10.76
2022-09-20T18:52:42.557Z,10.72
2022-09-20T18:55:15.898Z,10.68
2022-09-20T18:57:48.236Z,10.66
2022-09-20T19:00:21.319Z,10.64
2022-09-20T19:03:10.176Z,10.56
2022-09-20T19:05:54.214Z,10.45
2022-09-20T19:08:38.105Z,10.48
2022-09-20T19:11:30.297Z,10.41
2022-09-20T19:14:14.215Z,10.38
2022-09-20T19:16:53.158Z,10.35
2022-09-20T19:20:21.254Z,10.28
2022-09-20T19:27:43.341Z,10.28
2022-09-20T19:30:40.788Z,10.30
2022-09-20T19:33:20.561Z,10.26
2022-09-20T19:35:54.882Z,10.25
2022-09-20T19:38:38.495Z,10.21
2022-09-20T19:41:29.695Z,10.18
2022-09-20T19:44:21.738Z,10.19
2022-09-20T19:47:12.655Z,10.16
2022-09-20T19:49:53.852Z,10.14
2022-09-20T19:52:29.042Z,10.09
2022-09-20T19:55:02.106Z,10.08
2022-09-20T19:57:43.002Z,10.03
2022-09-20T20:00:20.631Z,10.02
2022-09-20T20:02:54.299Z,10.01
2022-09-20T20:05:28.008Z,10.00
2022-09-20T20:08:18.010Z,9.92
2022-09-20T20:11:00.042Z,9.87
2022-09-20T20:13:53.817Z,9.85
2022-09-20T20:16:36.844Z,9.89
2022-09-20T20:19:23.171Z,9.88
2022-09-20T20:22:01.041Z,9.84
2022-09-20T20:24:40.364Z,9.84
2022-09-20T20:27:12.445Z,9.80
2022-09-20T20:29:44.993Z,9.76
2022-09-20T20:32:19.758Z,9.75
2022-09-20T20:34:56.049Z,9.72
2022-09-20T20:37:28.667Z,9.76
2022-09-20T20:40:01.103Z,9.69
2022-09-20T20:42:33.974Z,9.68
2022-09-20T20:45:06.434Z,9.69
2022-09-20T20:47:42.932Z,9.67
2022-09-20T20:50:15.172Z,9.68
2022-09-20T20:52:47.053Z,9.69
2022-09-20T20:55:19.513Z,9.65
2022-09-20T20:57:58.662Z,9.62
2022-09-20T21:00:31.731Z,9.56
2022-09-20T21:03:06.694Z,9.55
2022-09-20T21:05:38.752Z,9.53
2022-09-20T21:08:11.773Z,9.53
2022-09-20T21:10:43.958Z,9.49
2022-09-20T21:13:16.212Z,9.51
2022-09-20T21:15:49.126Z,9.48
2022-09-20T21:18:23.794Z,9.48
2022-09-20T21:20:56.074Z,9.45
2022-09-20T21:23:27.935Z,9.41
2022-09-20T21:26:12.974Z,9.44
2022-09-20T21:28:49.143Z,9.39
2022-09-20T21:31:22.744Z,9.37
2022-09-20T21:33:57.274Z,9.37
2022-09-20T21:36:32.322Z,9.39
2022-09-20T21:39:04.144Z,9.36
2022-09-20T21:41:38.384Z,9.33
2022-09-20T21:44:12.503Z,9.34
2022-09-20T21:46:45.670Z,9.32
2022-09-20T21:49:20.102Z,9.22
2022-09-20T21:52:13.403Z,9.24
2022-09-20T21:54:46.841Z,9.26
2022-09-20T21:57:18.743Z,9.26
2022-09-20T21:59:50.787Z,9.26
2022-09-20T22:02:23.701Z,9.28
2022-09-20T22:04:58.362Z,9.25
2022-09-20T22:07:30.782Z,9.23
2022-09-20T22:10:02.642Z,9.22
2022-09-20T22:12:35.082Z,9.18
2022-09-20T22:15:07.190Z,9.18
2022-09-20T22:17:40.663Z,9.19
2022-09-20T22:20:15.603Z,9.17
2022-09-20T22:22:50.504Z,9.14
2022-09-20T22:25:22.823Z,9.09
2022-09-20T22:27:57.303Z,9.02
2022-09-20T22:30:29.630Z,9.01
2022-09-20T22:33:04.723Z,9.02
2022-09-20T22:35:47.503Z,8.94
2022-09-20T22:38:22.491Z,8.95
2022-09-20T22:41:00.505Z,8.89
2022-09-20T22:43:34.802Z,8.91
2022-09-20T22:46:08.382Z,8.87
2022-09-20T22:48:42.460Z,8.85
2022-09-20T22:51:19.761Z,8.83
2022-09-20T22:53:53.223Z,8.82
2022-09-20T22:56:29.330Z,8.79
2022-09-20T22:59:03.354Z,8.79
2022-09-20T23:01:42.973Z,8.75
2022-09-20T23:04:23.641Z,8.75
2022-09-20T23:06:58.543Z,8.70
2022-09-20T23:09:31.365Z,8.66
2022-09-20T23:12:03.501Z,8.63
2022-09-20T23:14:35.901Z,8.61
2022-09-20T23:17:08.202Z,8.60
2022-09-20T23:19:40.703Z,8.56
2022-09-20T23:22:15.863Z,8.51
2022-09-20T23:24:48.364Z,8.51
2022-09-20T23:27:20.429Z,8.49
2022-09-20T23:29:52.723Z,8.47
2022-09-20T23:32:24.943Z,8.44
2022-09-20T23:34:57.401Z,8.45
2022-09-20T23:37:32.165Z,8.41
2022-09-20T23:40:04.652Z,8.44
2022-09-20T23:42:36.701Z,8.41
2022-09-20T23:45:10.762Z,8.37
2022-09-20T23:47:42.761Z,8.36
2022-09-20T23:50:15.483Z,8.39
2022-09-20T23:52:50.363Z,8.38
2022-09-20T23:55:22.843Z,8.38
2022-09-20T23:57:59.084Z,8.33
